sensor_id;sensor_type;location;lat;lon;timestamp;P1;durP1;ratioP1;P2;durP2;ratioP2
41966;SDS011;27656;53.068;8.818;2023-04-05T00:02:10;5.10;;;3.80;;
41966;SDS011;27656;53.068;8.818;2023-04-05T00:04:38;8.53;;;3.77;;
41966;SDS011;27656;53.068;8.818;2023-04-05T00:07:17;7.23;;;4.13;;
41966;SDS011;27656;53.068;8.818;2023-04-05T00:09:44;9.33;;;4.20;;
41966;SDS011;27656;53.068;8.818;2023-04-05T00:12:11;8.20;;;4.57;;
41966;SDS011;27656;53.068;8.818;2023-04-05T00:14:37;9.10;;;4.20;;
41966;SDS011;27656;53.068;8.818;2023-04-05T00:17:04;6.10;;;3.90;;
41966;SDS011;27656;53.068;8.818;2023-04-05T00:19:30;6.90;;;4.00;;
41966;SDS011;27656;53.068;8.818;2023-04-05T00:21:59;9.07;;;4.33;;
41966;SDS011;27656;53.068;8.818;2023-04-05T00:29:21;9.63;;;4.43;;
41966;SDS011;27656;53.068;8.818;2023-04-05T00:31:48;8.73;;;5.03;;
41966;SDS011;27656;53.068;8.818;2023-04-05T00:34:15;7.23;;;3.83;;
41966;SDS011;27656;53.068;8.818;2023-04-05T00:36:41;9.77;;;4.10;;
41966;SDS011;27656;53.068;8.818;2023-04-05T00:39:08;6.57;;;4.03;;
41966;SDS011;27656;53.068;8.818;2023-04-05T00:41:34;7.83;;;3.80;;
41966;SDS011;27656;53.068;8.818;2023-04-05T00:44:01;8.87;;;4.30;;
41966;SDS011;27656;53.068;8.818;2023-04-05T00:46:29;7.13;;;4.00;;
41966;SDS011;27656;53.068;8.818;2023-04-05T00:48:55;4.97;;;3.47;;
41966;SDS011;27656;53.068;8.818;2023-04-05T00:51:22;8.67;;;3.90;;
41966;SDS011;27656;53.068;8.818;2023-04-05T00:53:49;6.03;;;3.67;;
41966;SDS011;27656;53.068;8.818;2023-04-05T00:56:18;7.73;;;4.23;;
41966;SDS011;27656;53.068;8.818;2023-04-05T00:58:46;9.23;;;4.10;;
41966;SDS011;27656;53.068;8.818;2023-04-05T01:01:20;5.73;;;4.20;;
41966;SDS011;27656;53.068;8.818;2023-04-05T01:03:58;11.50;;;4.33;;
41966;SDS011;27656;53.068;8.818;2023-04-05T01:11:56;8.87;;;4.10;;
41966;SDS011;27656;53.068;8.818;2023-04-05T01:14:24;7.50;;;4.30;;
41966;SDS011;27656;53.068;8.818;2023-04-05T01:16:50;6.20;;;4.10;;
41966;SDS011;27656;53.068;8.818;2023-04-05T01:19:26;6.93;;;4.10;;
41966;SDS011;27656;53.068;8.818;2023-04-05T01:22:09;8.10;;;3.97;;
41966;SDS011;27656;53.068;8.818;2023-04-05T01:25:43;6.73;;;3.90;;
41966;SDS011;27656;53.068;8.818;2023-04-05T01:28:11;5.00;;;3.50;;
41966;SDS011;27656;53.068;8.818;2023-04-05T01:30:43;8.03;;;3.93;;
41966;SDS011;27656;53.068;8.818;2023-04-05T01:36:03;9.43;;;4.07;;
41966;SDS011;27656;53.068;8.818;2023-04-05T01:38:52;8.03;;;4.17;;
41966;SDS011;27656;53.068;8.818;2023-04-05T01:41:20;6.10;;;3.60;;
41966;SDS011;27656;53.068;8.818;2023-04-05T01:43:46;7.50;;;4.00;;
41966;SDS011;27656;53.068;8.818;2023-04-05T01:46:14;6.27;;;3.67;;
41966;SDS011;27656;53.068;8.818;2023-04-05T01:48:40;8.97;;;3.70;;
41966;SDS011;27656;53.068;8.818;2023-04-05T01:51:07;4.70;;;3.60;;
41966;SDS011;27656;53.068;8.818;2023-04-05T01:53:33;5.83;;;3.70;;
41966;SDS011;27656;53.068;8.818;2023-04-05T01:56:00;8.87;;;4.10;;
41966;SDS011;27656;53.068;8.818;2023-04-05T01:58:26;7.93;;;3.80;;
41966;SDS011;27656;53.068;8.818;2023-04-05T02:00:53;5.93;;;3.50;;
41966;SDS011;27656;53.068;8.818;2023-04-05T02:03:23;6.73;;;3.50;;
41966;SDS011;27656;53.068;8.818;2023-04-05T02:05:50;8.40;;;4.20;;
41966;SDS011;27656;53.068;8.818;2023-04-05T02:08:17;7.37;;;3.60;;
41966;SDS011;27656;53.068;8.818;2023-04-05T02:10:43;12.03;;;4.10;;
41966;SDS011;27656;53.068;8.818;2023-04-05T02:13:10;9.80;;;4.43;;
41966;SDS011;27656;53.068;8.818;2023-04-05T02:15:38;10.43;;;4.70;;
41966;SDS011;27656;53.068;8.818;2023-04-05T02:18:05;9.50;;;4.60;;
41966;SDS011;27656;53.068;8.818;2023-04-05T02:20:33;7.73;;;4.00;;
41966;SDS011;27656;53.068;8.818;2023-04-05T02:22:59;8.43;;;4.97;;
41966;SDS011;27656;53.068;8.818;2023-04-05T02:25:27;6.87;;;4.30;;
41966;SDS011;27656;53.068;8.818;2023-04-05T02:27:53;6.67;;;4.13;;
41966;SDS011;27656;53.068;8.818;2023-04-05T02:30:20;9.47;;;4.47;;
41966;SDS011;27656;53.068;8.818;2023-04-05T02:32:46;10.47;;;4.60;;
41966;SDS011;27656;53.068;8.818;2023-04-05T02:35:13;7.90;;;3.97;;
41966;SDS011;27656;53.068;8.818;2023-04-05T02:37:42;8.27;;;4.20;;
41966;SDS011;27656;53.068;8.818;2023-04-05T02:40:11;10.03;;;4.73;;
41966;SDS011;27656;53.068;8.818;2023-04-05T02:42:40;7.50;;;4.13;;
41966;SDS011;27656;53.068;8.818;2023-04-05T02:45:07;8.20;;;4.20;;
41966;SDS011;27656;53.068;8.818;2023-04-05T02:47:33;8.03;;;4.30;;
41966;SDS011;27656;53.068;8.818;2023-04-05T02:50:00;7.43;;;4.30;;
41966;SDS011;27656;53.068;8.818;2023-04-05T02:52:26;9.10;;;4.23;;
41966;SDS011;27656;53.068;8.818;2023-04-05T02:54:53;5.93;;;4.03;;
41966;SDS011;27656;53.068;8.818;2023-04-05T02:57:19;7.83;;;4.20;;
41966;SDS011;27656;53.068;8.818;2023-04-05T02:59:46;7.37;;;4.30;;
41966;SDS011;27656;53.068;8.818;2023-04-05T03:02:12;8.43;;;4.10;;
41966;SDS011;27656;53.068;8.818;2023-04-05T03:04:39;6.73;;;4.20;;
41966;SDS011;27656;53.068;8.818;2023-04-05T03:07:06;6.47;;;4.30;;
41966;SDS011;27656;53.068;8.818;2023-04-05T03:09:33;11.47;;;4.73;;
41966;SDS011;27656;53.068;8.818;2023-04-05T03:12:00;10.47;;;4.37;;
41966;SDS011;27656;53.068;8.818;2023-04-05T03:14:27;6.47;;;4.03;;
41966;SDS011;27656;53.068;8.818;2023-04-05T03:16:54;5.77;;;3.83;;
41966;SDS011;27656;53.068;8.818;2023-04-05T03:19:20;6.67;;;4.20;;
41966;SDS011;27656;53.068;8.818;2023-04-05T03:21:47;7.90;;;4.50;;
41966;SDS011;27656;53.068;8.818;2023-04-05T03:24:14;7.43;;;4.60;;
41966;SDS011;27656;53.068;8.818;2023-04-05T03:26:44;6.43;;;4.07;;
41966;SDS011;27656;53.068;8.818;2023-04-05T03:29:11;7.50;;;4.17;;
41966;SDS011;27656;53.068;8.818;2023-04-05T03:31:37;7.93;;;3.97;;
41966;SDS011;27656;53.068;8.818;2023-04-05T03:34:04;9.87;;;4.00;;
41966;SDS011;27656;53.068;8.818;2023-04-05T03:36:30;7.80;;;4.23;;
41966;SDS011;27656;53.068;8.818;2023-04-05T03:39:10;8.00;;;4.40;;
41966;SDS011;27656;53.068;8.818;2023-04-05T03:41:40;9.07;;;4.77;;
41966;SDS011;27656;53.068;8.818;2023-04-05T03:44:07;8.20;;;4.30;;
41966;SDS011;27656;53.068;8.818;2023-04-05T03:46:34;8.07;;;4.57;;
41966;SDS011;27656;53.068;8.818;2023-04-05T03:49:03;7.30;;;4.70;;
41966;SDS011;27656;53.068;8.818;2023-04-05T03:51:29;7.33;;;4.10;;
41966;SDS011;27656;53.068;8.818;2023-04-05T03:53:56;7.53;;;4.50;;
41966;SDS011;27656;53.068;8.818;2023-04-05T03:56:22;9.90;;;4.23;;
41966;SDS011;27656;53.068;8.818;2023-04-05T04:40:32;12.23;;;5.13;;
41966;SDS011;27656;53.068;8.818;2023-04-05T04:43:06;11.90;;;5.17;;
41966;SDS011;27656;53.068;8.818;2023-04-05T04:45:35;9.37;;;5.53;;
41966;SDS011;27656;53.068;8.818;2023-04-05T04:48:03;10.40;;;5.00;;
41966;SDS011;27656;53.068;8.818;2023-04-05T04:50:33;10.07;;;5.20;;
41966;SDS011;27656;53.068;8.818;2023-04-05T04:53:00;8.20;;;4.73;;
41966;SDS011;27656;53.068;8.818;2023-04-05T04:55:27;8.17;;;4.73;;
41966;SDS011;27656;53.068;8.818;2023-04-05T04:57:54;9.37;;;4.87;;
41966;SDS011;27656;53.068;8.818;2023-04-05T05:00:21;12.50;;;4.50;;
41966;SDS011;27656;53.068;8.818;2023-04-05T05:02:49;9.70;;;4.93;;
41966;SDS011;27656;53.068;8.818;2023-04-05T05:05:19;9.20;;;4.67;;
41966;SDS011;27656;53.068;8.818;2023-04-05T05:07:48;7.60;;;4.90;;
41966;SDS011;27656;53.068;8.818;2023-04-05T05:10:14;10.97;;;4.70;;
41966;SDS011;27656;53.068;8.818;2023-04-05T05:12:41;11.23;;;5.00;;
41966;SDS011;27656;53.068;8.818;2023-04-05T05:15:08;11.00;;;5.63;;
41966;SDS011;27656;53.068;8.818;2023-04-05T05:17:35;8.90;;;4.80;;
41966;SDS011;27656;53.068;8.818;2023-04-05T05:20:02;9.40;;;5.00;;
41966;SDS011;27656;53.068;8.818;2023-04-05T05:22:38;7.73;;;4.57;;
41966;SDS011;27656;53.068;8.818;2023-04-05T05:25:05;12.33;;;5.00;;
41966;SDS011;27656;53.068;8.818;2023-04-05T05:27:33;7.00;;;4.40;;
41966;SDS011;27656;53.068;8.818;2023-04-05T05:30:00;7.27;;;4.50;;
41966;SDS011;27656;53.068;8.818;2023-04-05T05:32:27;8.77;;;4.47;;
41966;SDS011;27656;53.068;8.818;2023-04-05T05:34:53;12.97;;;4.90;;
41966;SDS011;27656;53.068;8.818;2023-04-05T05:37:38;14.33;;;5.17;;
41966;SDS011;27656;53.068;8.818;2023-04-05T05:40:05;8.13;;;4.37;;
41966;SDS011;27656;53.068;8.818;2023-04-05T05:42:32;9.07;;;4.97;;
41966;SDS011;27656;53.068;8.818;2023-04-05T05:45:03;7.73;;;4.53;;
41966;SDS011;27656;53.068;8.818;2023-04-05T05:47:30;7.97;;;4.00;;
41966;SDS011;27656;53.068;8.818;2023-04-05T05:49:57;8.93;;;4.57;;
41966;SDS011;27656;53.068;8.818;2023-04-05T05:52:24;6.57;;;4.17;;
41966;SDS011;27656;53.068;8.818;2023-04-05T05:54:50;12.33;;;4.97;;
41966;SDS011;27656;53.068;8.818;2023-04-05T05:57:17;10.07;;;4.47;;
41966;SDS011;27656;53.068;8.818;2023-04-05T05:59:43;7.13;;;4.37;;
41966;SDS011;27656;53.068;8.818;2023-04-05T06:02:09;8.33;;;4.63;;
41966;SDS011;27656;53.068;8.818;2023-04-05T06:04:36;10.93;;;4.73;;
41966;SDS011;27656;53.068;8.818;2023-04-05T06:07:03;8.77;;;4.40;;
41966;SDS011;27656;53.068;8.818;2023-04-05T06:09:29;7.83;;;3.93;;
41966;SDS011;27656;53.068;8.818;2023-04-05T06:11:58;11.03;;;4.53;;
41966;SDS011;27656;53.068;8.818;2023-04-05T06:14:26;11.60;;;4.33;;
41966;SDS011;27656;53.068;8.818;2023-04-05T06:16:54;7.47;;;4.30;;
41966;SDS011;27656;53.068;8.818;2023-04-05T06:19:21;8.70;;;4.23;;
41966;SDS011;27656;53.068;8.818;2023-04-05T06:21:47;9.37;;;4.27;;
41966;SDS011;27656;53.068;8.818;2023-04-05T06:24:13;11.50;;;4.57;;
41966;SDS011;27656;53.068;8.818;2023-04-05T06:26:40;6.97;;;3.80;;
41966;SDS011;27656;53.068;8.818;2023-04-05T06:29:06;9.33;;;4.10;;
41966;SDS011;27656;53.068;8.818;2023-04-05T06:31:34;13.63;;;4.10;;
41966;SDS011;27656;53.068;8.818;2023-04-05T06:34:01;9.87;;;4.37;;
41966;SDS011;27656;53.068;8.818;2023-04-05T06:36:31;5.20;;;4.03;;
41966;SDS011;27656;53.068;8.818;2023-04-05T06:38:59;8.87;;;4.07;;
41966;SDS011;27656;53.068;8.818;2023-04-05T06:41:26;9.80;;;4.10;;
41966;SDS011;27656;53.068;8.818;2023-04-05T06:43:55;6.53;;;3.70;;
41966;SDS011;27656;53.068;8.818;2023-04-05T06:46:22;6.50;;;3.50;;
41966;SDS011;27656;53.068;8.818;2023-04-05T06:48:50;12.10;;;4.13;;
41966;SDS011;27656;53.068;8.818;2023-04-05T06:51:17;6.17;;;3.83;;
41966;SDS011;27656;53.068;8.818;2023-04-05T06:53:43;7.03;;;3.87;;
41966;SDS011;27656;53.068;8.818;2023-04-05T06:56:10;7.90;;;3.60;;
41966;SDS011;27656;53.068;8.818;2023-04-05T06:58:37;8.33;;;3.50;;
41966;SDS011;27656;53.068;8.818;2023-04-05T07:01:04;7.00;;;3.90;;
41966;SDS011;27656;53.068;8.818;2023-04-05T07:03:31;8.73;;;3.43;;
41966;SDS011;27656;53.068;8.818;2023-04-05T07:05:58;8.77;;;3.63;;
41966;SDS011;27656;53.068;8.818;2023-04-05T07:08:26;9.87;;;4.07;;
41966;SDS011;27656;53.068;8.818;2023-04-05T07:10:53;6.60;;;3.80;;
41966;SDS011;27656;53.068;8.818;2023-04-05T07:13:20;7.03;;;3.60;;
41966;SDS011;27656;53.068;8.818;2023-04-05T07:15:48;6.87;;;3.73;;
41966;SDS011;27656;53.068;8.818;2023-04-05T07:18:14;11.40;;;4.33;;
41966;SDS011;27656;53.068;8.818;2023-04-05T07:20:41;10.57;;;3.70;;
41966;SDS011;27656;53.068;8.818;2023-04-05T07:23:08;10.03;;;3.83;;
41966;SDS011;27656;53.068;8.818;2023-04-05T07:25:34;7.77;;;3.50;;
41966;SDS011;27656;53.068;8.818;2023-04-05T07:28:01;12.60;;;4.37;;
41966;SDS011;27656;53.068;8.818;2023-04-05T07:30:29;9.53;;;3.23;;
41966;SDS011;27656;53.068;8.818;2023-04-05T07:32:57;9.23;;;3.47;;
41966;SDS011;27656;53.068;8.818;2023-04-05T07:35:23;8.87;;;3.67;;
41966;SDS011;27656;53.068;8.818;2023-04-05T07:37:50;11.47;;;3.63;;
41966;SDS011;27656;53.068;8.818;2023-04-05T07:40:17;6.10;;;3.13;;
41966;SDS011;27656;53.068;8.818;2023-04-05T07:42:44;8.43;;;3.47;;
41966;SDS011;27656;53.068;8.818;2023-04-05T07:45:10;7.37;;;3.47;;
41966;SDS011;27656;53.068;8.818;2023-04-05T07:47:37;7.93;;;3.70;;
41966;SDS011;27656;53.068;8.818;2023-04-05T07:50:03;4.43;;;3.00;;
41966;SDS011;27656;53.068;8.818;2023-04-05T07:52:32;6.20;;;3.40;;
41966;SDS011;27656;53.068;8.818;2023-04-05T07:54:58;7.13;;;3.77;;
41966;SDS011;27656;53.068;8.818;2023-04-05T07:57:25;10.63;;;3.80;;
41966;SDS011;27656;53.068;8.818;2023-04-05T07:59:52;13.73;;;4.23;;
41966;SDS011;27656;53.068;8.818;2023-04-05T08:02:19;16.00;;;4.30;;
41966;SDS011;27656;53.068;8.818;2023-04-05T08:04:46;10.40;;;4.97;;
41966;SDS011;27656;53.068;8.818;2023-04-05T08:07:13;10.73;;;4.47;;
41966;SDS011;27656;53.068;8.818;2023-04-05T08:09:39;9.47;;;4.40;;
41966;SDS011;27656;53.068;8.818;2023-04-05T08:12:06;9.47;;;4.20;;
41966;SDS011;27656;53.068;8.818;2023-04-05T08:14:33;8.50;;;3.77;;
41966;SDS011;27656;53.068;8.818;2023-04-05T08:16:59;10.40;;;4.10;;
41966;SDS011;27656;53.068;8.818;2023-04-05T08:19:26;14.57;;;4.20;;
41966;SDS011;27656;53.068;8.818;2023-04-05T08:21:52;10.23;;;4.40;;
41966;SDS011;27656;53.068;8.818;2023-04-05T08:24:19;10.33;;;4.10;;
41966;SDS011;27656;53.068;8.818;2023-04-05T08:26:45;8.97;;;4.47;;
41966;SDS011;27656;53.068;8.818;2023-04-05T08:29:12;11.83;;;3.90;;
41966;SDS011;27656;53.068;8.818;2023-04-05T08:31:38;7.37;;;3.70;;
41966;SDS011;27656;53.068;8.818;2023-04-05T08:34:05;12.80;;;3.23;;
41966;SDS011;27656;53.068;8.818;2023-04-05T08:36:33;7.93;;;3.50;;
41966;SDS011;27656;53.068;8.818;2023-04-05T08:38:59;9.20;;;2.90;;
41966;SDS011;27656;53.068;8.818;2023-04-05T08:41:27;4.00;;;2.30;;
41966;SDS011;27656;53.068;8.818;2023-04-05T08:43:59;7.83;;;2.60;;
41966;SDS011;27656;53.068;8.818;2023-04-05T08:46:31;8.17;;;3.10;;
41966;SDS011;27656;53.068;8.818;2023-04-05T08:49:03;7.83;;;2.80;;
41966;SDS011;27656;53.068;8.818;2023-04-05T08:51:31;7.63;;;3.03;;
41966;SDS011;27656;53.068;8.818;2023-04-05T08:53:58;7.20;;;2.70;;
41966;SDS011;27656;53.068;8.818;2023-04-05T08:56:26;6.20;;;2.90;;
41966;SDS011;27656;53.068;8.818;2023-04-05T08:59:01;7.80;;;2.87;;
41966;SDS011;27656;53.068;8.818;2023-04-05T09:01:29;7.27;;;3.00;;
41966;SDS011;27656;53.068;8.818;2023-04-05T09:03:58;6.03;;;2.60;;
41966;SDS011;27656;53.068;8.818;2023-04-05T09:06:26;4.53;;;2.20;;
41966;SDS011;27656;53.068;8.818;2023-04-05T09:08:57;6.93;;;2.60;;
41966;SDS011;27656;53.068;8.818;2023-04-05T09:11:23;7.90;;;3.00;;
41966;SDS011;27656;53.068;8.818;2023-04-05T09:13:50;6.57;;;2.80;;
41966;SDS011;27656;53.068;8.818;2023-04-05T09:16:17;5.53;;;2.73;;
41966;SDS011;27656;53.068;8.818;2023-04-05T09:18:44;7.43;;;3.00;;
41966;SDS011;27656;53.068;8.818;2023-04-05T09:21:11;4.77;;;2.73;;
41966;SDS011;27656;53.068;8.818;2023-04-05T09:23:38;5.27;;;3.03;;
41966;SDS011;27656;53.068;8.818;2023-04-05T09:26:21;5.37;;;2.60;;
41966;SDS011;27656;53.068;8.818;2023-04-05T09:28:49;3.37;;;2.10;;
41966;SDS011;27656;53.068;8.818;2023-04-05T09:31:32;3.87;;;2.27;;
41966;SDS011;27656;53.068;8.818;2023-04-05T09:34:03;5.90;;;2.47;;
41966;SDS011;27656;53.068;8.818;2023-04-05T09:36:34;5.00;;;2.67;;
41966;SDS011;27656;53.068;8.818;2023-04-05T09:39:05;9.57;;;2.67;;
41966;SDS011;27656;53.068;8.818;2023-04-05T09:41:32;7.47;;;2.40;;
41966;SDS011;27656;53.068;8.818;2023-04-05T09:43:59;4.00;;;2.50;;
41966;SDS011;27656;53.068;8.818;2023-04-05T09:46:35;6.47;;;2.50;;
41966;SDS011;27656;53.068;8.818;2023-04-05T09:49:05;6.13;;;2.40;;
41966;SDS011;27656;53.068;8.818;2023-04-05T09:51:35;4.03;;;2.43;;
41966;SDS011;27656;53.068;8.818;2023-04-05T09:56:34;4.07;;;1.83;;
41966;SDS011;27656;53.068;8.818;2023-04-05T09:59:08;3.27;;;2.00;;
41966;SDS011;27656;53.068;8.818;2023-04-05T10:01:37;4.33;;;2.47;;
41966;SDS011;27656;53.068;8.818;2023-04-05T10:04:06;5.03;;;2.10;;
41966;SDS011;27656;53.068;8.818;2023-04-05T10:06:42;3.63;;;2.00;;
41966;SDS011;27656;53.068;8.818;2023-04-05T10:09:09;5.13;;;2.20;;
41966;SDS011;27656;53.068;8.818;2023-04-05T10:11:37;3.83;;;2.37;;
41966;SDS011;27656;53.068;8.818;2023-04-05T10:14:05;8.10;;;2.93;;
41966;SDS011;27656;53.068;8.818;2023-04-05T10:16:32;5.00;;;2.50;;
41966;SDS011;27656;53.068;8.818;2023-04-05T10:19:04;3.40;;;2.10;;
41966;SDS011;27656;53.068;8.818;2023-04-05T10:21:32;4.03;;;2.03;;
41966;SDS011;27656;53.068;8.818;2023-04-05T10:27:02;3.47;;;1.80;;
41966;SDS011;27656;53.068;8.818;2023-04-05T10:29:34;5.53;;;2.17;;
41966;SDS011;27656;53.068;8.818;2023-04-05T10:32:10;5.73;;;2.43;;
41966;SDS011;27656;53.068;8.818;2023-04-05T10:34:50;3.43;;;2.10;;
41966;SDS011;27656;53.068;8.818;2023-04-05T10:37:40;4.43;;;2.07;;
41966;SDS011;27656;53.068;8.818;2023-04-05T10:40:13;4.50;;;2.50;;
41966;SDS011;27656;53.068;8.818;2023-04-05T10:42:41;3.60;;;1.77;;
41966;SDS011;27656;53.068;8.818;2023-04-05T10:45:12;3.30;;;1.80;;
41966;SDS011;27656;53.068;8.818;2023-04-05T10:47:54;3.67;;;1.90;;
41966;SDS011;27656;53.068;8.818;2023-04-05T10:50:23;5.37;;;2.23;;
41966;SDS011;27656;53.068;8.818;2023-04-05T10:52:50;2.47;;;1.80;;
41966;SDS011;27656;53.068;8.818;2023-04-05T10:55:18;3.30;;;1.77;;
41966;SDS011;27656;53.068;8.818;2023-04-05T10:57:46;3.67;;;2.03;;
41966;SDS011;27656;53.068;8.818;2023-04-05T11:00:14;4.17;;;2.00;;
41966;SDS011;27656;53.068;8.818;2023-04-05T11:02:41;3.23;;;1.80;;
41966;SDS011;27656;53.068;8.818;2023-04-05T11:05:27;4.03;;;1.80;;
41966;SDS011;27656;53.068;8.818;2023-04-05T11:07:59;3.53;;;1.77;;
41966;SDS011;27656;53.068;8.818;2023-04-05T11:10:29;6.07;;;2.50;;
41966;SDS011;27656;53.068;8.818;2023-04-05T11:21:05;6.03;;;1.97;;
41966;SDS011;27656;53.068;8.818;2023-04-05T11:23:34;3.97;;;2.20;;
41966;SDS011;27656;53.068;8.818;2023-04-05T11:29:14;5.60;;;1.90;;
41966;SDS011;27656;53.068;8.818;2023-04-05T11:31:57;3.10;;;1.97;;
41966;SDS011;27656;53.068;8.818;2023-04-05T11:34:26;3.10;;;1.90;;
41966;SDS011;27656;53.068;8.818;2023-04-05T11:36:53;5.03;;;2.30;;
41966;SDS011;27656;53.068;8.818;2023-04-05T11:44:48;3.60;;;2.10;;
41966;SDS011;27656;53.068;8.818;2023-04-05T11:47:17;3.87;;;2.07;;
41966;SDS011;27656;53.068;8.818;2023-04-05T11:49:49;2.73;;;1.90;;
41966;SDS011;27656;53.068;8.818;2023-04-05T11:52:17;3.93;;;2.00;;
41966;SDS011;27656;53.068;8.818;2023-04-05T11:54:45;7.63;;;1.80;;
41966;SDS011;27656;53.068;8.818;2023-04-05T11:57:12;5.07;;;1.90;;
41966;SDS011;27656;53.068;8.818;2023-04-05T11:59:41;3.27;;;1.90;;
41966;SDS011;27656;53.068;8.818;2023-04-05T12:02:07;2.70;;;1.80;;
41966;SDS011;27656;53.068;8.818;2023-04-05T12:04:35;4.93;;;2.20;;
41966;SDS011;27656;53.068;8.818;2023-04-05T12:07:08;4.80;;;2.10;;
41966;SDS011;27656;53.068;8.818;2023-04-05T12:09:55;3.50;;;2.30;;
41966;SDS011;27656;53.068;8.818;2023-04-05T12:12:37;2.37;;;1.80;;
41966;SDS011;27656;53.068;8.818;2023-04-05T12:15:05;4.57;;;2.17;;
41966;SDS011;27656;53.068;8.818;2023-04-05T12:20:15;4.90;;;2.10;;
41966;SDS011;27656;53.068;8.818;2023-04-05T12:22:42;3.17;;;1.90;;
41966;SDS011;27656;53.068;8.818;2023-04-05T12:25:10;3.90;;;1.80;;
41966;SDS011;27656;53.068;8.818;2023-04-05T12:27:37;4.43;;;2.00;;
41966;SDS011;27656;53.068;8.818;2023-04-05T12:30:14;3.03;;;1.63;;
41966;SDS011;27656;53.068;8.818;2023-04-05T12:32:52;5.83;;;1.77;;
41966;SDS011;27656;53.068;8.818;2023-04-05T12:35:21;4.03;;;2.00;;
41966;SDS011;27656;53.068;8.818;2023-04-05T12:37:57;4.60;;;1.90;;
41966;SDS011;27656;53.068;8.818;2023-04-05T12:40:25;4.10;;;2.00;;
41966;SDS011;27656;53.068;8.818;2023-04-05T12:42:55;4.20;;;1.90;;
41966;SDS011;27656;53.068;8.818;2023-04-05T12:45:35;2.73;;;2.00;;
41966;SDS011;27656;53.068;8.818;2023-04-05T12:48:09;5.30;;;2.03;;
41966;SDS011;27656;53.068;8.818;2023-04-05T12:50:42;3.87;;;1.97;;
41966;SDS011;27656;53.068;8.818;2023-04-05T12:53:16;2.23;;;1.53;;
41966;SDS011;27656;53.068;8.818;2023-04-05T12:55:49;4.23;;;2.00;;
41966;SDS011;27656;53.068;8.818;2023-04-05T12:58:17;4.67;;;1.87;;
41966;SDS011;27656;53.068;8.818;2023-04-05T13:00:45;3.03;;;1.87;;
41966;SDS011;27656;53.068;8.818;2023-04-05T13:03:19;3.67;;;2.00;;
41966;SDS011;27656;53.068;8.818;2023-04-05T13:05:46;3.53;;;2.27;;
41966;SDS011;27656;53.068;8.818;2023-04-05T13:08:16;2.80;;;2.03;;
41966;SDS011;27656;53.068;8.818;2023-04-05T13:10:47;4.07;;;2.10;;
41966;SDS011;27656;53.068;8.818;2023-04-05T13:13:14;3.93;;;2.30;;
41966;SDS011;27656;53.068;8.818;2023-04-05T13:15:42;5.07;;;2.17;;
41966;SDS011;27656;53.068;8.818;2023-04-05T13:18:09;3.93;;;2.50;;
41966;SDS011;27656;53.068;8.818;2023-04-05T13:20:36;2.30;;;1.90;;
41966;SDS011;27656;53.068;8.818;2023-04-05T13:23:02;4.37;;;2.30;;
41966;SDS011;27656;53.068;8.818;2023-04-05T13:25:29;3.93;;;2.40;;
41966;SDS011;27656;53.068;8.818;2023-04-05T13:27:55;3.17;;;1.87;;
41966;SDS011;27656;53.068;8.818;2023-04-05T13:30:22;3.47;;;2.20;;
41966;SDS011;27656;53.068;8.818;2023-04-05T13:32:48;7.27;;;1.97;;
41966;SDS011;27656;53.068;8.818;2023-04-05T13:35:15;4.90;;;2.00;;
41966;SDS011;27656;53.068;8.818;2023-04-05T13:37:41;3.57;;;1.93;;
41966;SDS011;27656;53.068;8.818;2023-04-05T13:40:08;3.27;;;1.83;;
41966;SDS011;27656;53.068;8.818;2023-04-05T13:42:35;2.50;;;1.87;;
41966;SDS011;27656;53.068;8.818;2023-04-05T13:45:01;6.50;;;2.00;;
41966;SDS011;27656;53.068;8.818;2023-04-05T13:47:28;4.33;;;2.40;;
41966;SDS011;27656;53.068;8.818;2023-04-05T13:49:54;4.80;;;2.43;;
41966;SDS011;27656;53.068;8.818;2023-04-05T13:52:21;2.90;;;1.90;;
41966;SDS011;27656;53.068;8.818;2023-04-05T13:54:47;4.33;;;2.00;;
41966;SDS011;27656;53.068;8.818;2023-04-05T13:57:27;3.20;;;2.00;;
41966;SDS011;27656;53.068;8.818;2023-04-05T13:59:53;4.47;;;2.20;;
41966;SDS011;27656;53.068;8.818;2023-04-05T14:02:20;3.60;;;2.10;;
41966;SDS011;27656;53.068;8.818;2023-04-05T14:04:51;4.70;;;1.97;;
41966;SDS011;27656;53.068;8.818;2023-04-05T14:07:18;5.10;;;2.10;;
41966;SDS011;27656;53.068;8.818;2023-04-05T14:09:45;3.27;;;1.93;;
41966;SDS011;27656;53.068;8.818;2023-04-05T14:12:12;4.97;;;2.13;;
41966;SDS011;27656;53.068;8.818;2023-04-05T14:14:38;3.60;;;2.30;;
41966;SDS011;27656;53.068;8.818;2023-04-05T14:17:05;6.90;;;2.00;;
41966;SDS011;27656;53.068;8.818;2023-04-05T14:19:32;4.20;;;2.20;;
41966;SDS011;27656;53.068;8.818;2023-04-05T14:21:59;4.70;;;1.93;;
41966;SDS011;27656;53.068;8.818;2023-04-05T14:24:25;4.33;;;2.07;;
41966;SDS011;27656;53.068;8.818;2023-04-05T14:26:52;3.00;;;1.90;;
41966;SDS011;27656;53.068;8.818;2023-04-05T14:29:18;5.87;;;2.27;;
41966;SDS011;27656;53.068;8.818;2023-04-05T14:31:45;3.00;;;2.10;;
41966;SDS011;27656;53.068;8.818;2023-04-05T14:34:12;4.20;;;2.10;;
41966;SDS011;27656;53.068;8.818;2023-04-05T14:36:39;6.47;;;2.40;;
41966;SDS011;27656;53.068;8.818;2023-04-05T14:39:06;2.73;;;1.93;;
41966;SDS011;27656;53.068;8.818;2023-04-05T14:41:32;5.27;;;2.67;;
41966;SDS011;27656;53.068;8.818;2023-04-05T14:44:00;3.07;;;2.27;;
41966;SDS011;27656;53.068;8.818;2023-04-05T14:46:26;6.73;;;2.20;;
41966;SDS011;27656;53.068;8.818;2023-04-05T14:48:52;4.60;;;2.20;;
41966;SDS011;27656;53.068;8.818;2023-04-05T14:51:19;3.40;;;2.10;;
41966;SDS011;27656;53.068;8.818;2023-04-05T14:53:45;4.10;;;2.20;;
41966;SDS011;27656;53.068;8.818;2023-04-05T14:56:12;4.57;;;2.33;;
41966;SDS011;27656;53.068;8.818;2023-04-05T14:58:38;2.93;;;2.30;;
41966;SDS011;27656;53.068;8.818;2023-04-05T15:01:05;4.20;;;2.43;;
41966;SDS011;27656;53.068;8.818;2023-04-05T15:03:35;5.43;;;2.00;;
41966;SDS011;27656;53.068;8.818;2023-04-05T15:06:03;3.80;;;2.03;;
41966;SDS011;27656;53.068;8.818;2023-04-05T15:08:30;4.47;;;2.13;;
41966;SDS011;27656;53.068;8.818;2023-04-05T15:10:57;5.33;;;2.70;;
41966;SDS011;27656;53.068;8.818;2023-04-05T15:13:23;4.73;;;2.23;;
41966;SDS011;27656;53.068;8.818;2023-04-05T15:15:52;3.17;;;2.00;;
41966;SDS011;27656;53.068;8.818;2023-04-05T15:18:18;4.13;;;2.23;;
41966;SDS011;27656;53.068;8.818;2023-04-05T15:20:45;3.77;;;2.30;;
41966;SDS011;27656;53.068;8.818;2023-04-05T15:23:11;3.10;;;2.07;;
41966;SDS011;27656;53.068;8.818;2023-04-05T15:25:38;2.60;;;2.20;;
41966;SDS011;27656;53.068;8.818;2023-04-05T15:28:05;3.63;;;2.27;;
41966;SDS011;27656;53.068;8.818;2023-04-05T15:30:32;4.67;;;2.13;;
41966;SDS011;27656;53.068;8.818;2023-04-05T15:32:58;4.90;;;2.50;;
41966;SDS011;27656;53.068;8.818;2023-04-05T15:35:25;5.07;;;2.20;;
41966;SDS011;27656;53.068;8.818;2023-04-05T15:37:52;3.03;;;2.17;;
41966;SDS011;27656;53.068;8.818;2023-04-05T15:40:18;3.20;;;2.10;;
41966;SDS011;27656;53.068;8.818;2023-04-05T15:42:45;4.80;;;2.13;;
41966;SDS011;27656;53.068;8.818;2023-04-05T15:45:12;3.00;;;2.00;;
41966;SDS011;27656;53.068;8.818;2023-04-05T15:47:38;8.13;;;3.60;;
41966;SDS011;27656;53.068;8.818;2023-04-05T15:50:05;3.37;;;2.33;;
41966;SDS011;27656;53.068;8.818;2023-04-05T15:52:32;7.87;;;2.73;;
41966;SDS011;27656;53.068;8.818;2023-04-05T15:55:00;4.03;;;2.77;;
41966;SDS011;27656;53.068;8.818;2023-04-05T15:57:27;3.07;;;2.30;;
41966;SDS011;27656;53.068;8.818;2023-04-05T15:59:54;5.43;;;2.83;;
41966;SDS011;27656;53.068;8.818;2023-04-05T16:02:20;3.57;;;2.47;;
41966;SDS011;27656;53.068;8.818;2023-04-05T16:04:47;6.70;;;3.00;;
41966;SDS011;27656;53.068;8.818;2023-04-05T16:07:13;4.10;;;2.67;;
41966;SDS011;27656;53.068;8.818;2023-04-05T16:09:41;4.20;;;2.70;;
41966;SDS011;27656;53.068;8.818;2023-04-05T16:12:08;7.73;;;2.43;;
41966;SDS011;27656;53.068;8.818;2023-04-05T16:14:34;8.47;;;2.73;;